📊 Raw Sensor Data
Showing records 34476 to 34500 of 84,854 total
| ID | Distance (ft) | Battery V | Battery A | Int Temp (°F) | Int Humid (%) | Ext Temp (°F) | Solar V | RSSI | SNR | Time Stamp |
|---|---|---|---|---|---|---|---|---|---|---|
| 50391 | 15.8 | 3.86 | 0 | 84 | 42 | 81 | 5.10 | -65 | 8 | 08/27/2025 11:30 AM |
| 50390 | 15.8 | 3.86 | 6 | 83 | 42 | 82 | 5.10 | -66 | 7 | 08/27/2025 11:15 AM |
| 50389 | 15.8 | 3.88 | 7 | 81 | 42 | 81 | 5.10 | -66 | 7 | 08/27/2025 11:00 AM |
| 50388 | 16.0 | 3.86 | 8 | 80 | 42 | 82 | 5.10 | -66 | 8 | 08/27/2025 10:45 AM |
| 50387 | 15.7 | 3.86 | 0 | 78 | 42 | 79 | 5.10 | -66 | 8 | 08/27/2025 10:30 AM |
| 50386 | 15.9 | 3.86 | 10 | 77 | 42 | 78 | 5.10 | -67 | 8 | 08/27/2025 10:15 AM |
| 50385 | 15.9 | 4.20 | 155 | 76 | 41 | 78 | 5.10 | -65 | 7 | 08/27/2025 10:00 AM |
| 50384 | 16.1 | 4.20 | 162 | 74 | 41 | 75 | 5.10 | -66 | 8 | 08/27/2025 09:45 AM |
| 50383 | 15.8 | 4.20 | 175 | 73 | 41 | 75 | 5.10 | -66 | 8 | 08/27/2025 09:30 AM |
| 50382 | 15.8 | 4.20 | 202 | 72 | 41 | 73 | 5.10 | -66 | 8 | 08/27/2025 09:15 AM |
| 50381 | 15.7 | 4.20 | 192 | 71 | 42 | 74 | 5.10 | -66 | 8 | 08/27/2025 09:00 AM |
| 50380 | 15.8 | 4.05 | 175 | 69 | 42 | 72 | 4.50 | -71 | 8 | 08/27/2025 08:45 AM |
| 50379 | 15.7 | 3.97 | 130 | 68 | 42 | 71 | 4.50 | -70 | 7 | 08/27/2025 08:30 AM |
| 50378 | 15.7 | 3.89 | 113 | 66 | 42 | 69 | 4.50 | -70 | 8 | 08/27/2025 08:15 AM |
| 50377 | 15.7 | 3.70 | 0 | 65 | 43 | 69 | 5.10 | -70 | 7 | 08/27/2025 08:00 AM |
| 50376 | 15.7 | 3.88 | 44 | 64 | 43 | 68 | 4.50 | -71 | 8 | 08/27/2025 07:45 AM |
| 50375 | 15.6 | 3.79 | 5 | 63 | 43 | 67 | 4.50 | -70 | 8 | 08/27/2025 07:30 AM |
| 50374 | 15.6 | 3.76 | 8 | 61 | 43 | 65 | 4.50 | -72 | 8 | 08/27/2025 07:15 AM |
| 50373 | 15.5 | 3.59 | 0 | 60 | 44 | 63 | 4.50 | -72 | 8 | 08/27/2025 07:00 AM |
| 50372 | 15.5 | 3.55 | -9 | 59 | 44 | 60 | 4.50 | -71 | 8 | 08/27/2025 06:45 AM |
| 50371 | 15.5 | 3.57 | -5 | 60 | 44 | 61 | 2.10 | -71 | 9 | 08/27/2025 06:30 AM |
| 50370 | 15.5 | 3.57 | -5 | 60 | 44 | 61 | 0.30 | -70 | 8 | 08/27/2025 06:15 AM |
| 50369 | 15.5 | 3.57 | -5 | 60 | 44 | 61 | 0.00 | -72 | 8 | 08/27/2025 06:00 AM |
| 50368 | 15.5 | 3.57 | -5 | 60 | 44 | 61 | 0.00 | -71 | 8 | 08/27/2025 05:45 AM |
| 50367 | 15.5 | 3.57 | -5 | 61 | 44 | 62 | 0.00 | -71 | 8 | 08/27/2025 05:30 AM |